createdAt,value
2023-04-25T00:06:47.666Z,1.27
2023-04-25T00:21:49.123Z,1.10
2023-04-25T00:36:50.593Z,1.20
2023-04-25T00:51:52.068Z,1.20
2023-04-25T01:06:53.537Z,1.20
2023-04-25T01:21:55.003Z,1.00
2023-04-25T01:36:56.464Z,1.10
2023-04-25T01:51:57.936Z,1.03
2023-04-25T02:06:59.405Z,1.40
2023-04-25T02:22:00.875Z,1.10
2023-04-25T02:37:02.355Z,1.10
2023-04-25T02:52:03.825Z,1.00
2023-04-25T03:07:05.305Z,1.20
2023-04-25T03:22:06.840Z,0.97
2023-04-25T03:37:08.312Z,1.13
2023-04-25T03:52:09.800Z,1.10
2023-04-25T04:07:11.267Z,1.20
2023-04-25T04:22:12.765Z,1.33
2023-04-25T04:37:14.251Z,0.90
2023-04-25T04:52:15.751Z,1.17
2023-04-25T05:07:17.220Z,1.10
2023-04-25T05:22:18.693Z,1.30
2023-04-25T05:37:20.160Z,1.00
2023-04-25T05:52:21.626Z,1.20
2023-04-25T06:07:23.102Z,1.37
2023-04-25T06:22:24.576Z,1.20
2023-04-25T06:37:26.054Z,1.20
2023-04-25T06:52:27.523Z,0.90
2023-04-25T07:07:28.986Z,1.10
2023-04-25T07:22:30.460Z,1.00
2023-04-25T07:37:31.921Z,0.83
2023-04-25T07:52:33.374Z,1.20
2023-04-25T08:07:34.875Z,0.90
2023-04-25T08:22:36.342Z,1.27
2023-04-25T08:37:37.810Z,1.20
2023-04-25T08:52:39.283Z,1.00
2023-04-25T09:07:40.847Z,1.10
2023-04-25T09:22:42.325Z,1.00
2023-04-25T09:37:43.851Z,0.97
2023-04-25T09:52:45.342Z,1.00
2023-04-25T10:07:46.828Z,1.00
2023-04-25T10:22:48.371Z,1.07
2023-04-25T10:37:49.849Z,1.03
2023-04-25T10:52:51.340Z,0.90
2023-04-25T11:08:03.791Z,0.90
2023-04-25T11:23:08.498Z,0.80
2023-04-25T11:38:09.985Z,1.07
2023-04-25T11:53:11.458Z,1.20
2023-04-25T12:08:12.973Z,1.10
2023-04-25T12:23:14.457Z,1.00
2023-04-25T12:38:15.921Z,0.90
2023-04-25T12:53:17.388Z,1.00
2023-04-25T13:08:18.873Z,0.90
2023-04-25T13:23:20.353Z,1.03
2023-04-25T13:38:21.819Z,0.77
2023-04-25T13:53:23.311Z,0.80
2023-04-25T14:08:24.773Z,0.70
2023-04-25T14:23:27.380Z,0.80
2023-04-25T14:38:28.925Z,1.00
2023-04-25T14:53:30.397Z,1.00
2023-04-25T15:08:31.881Z,1.23
2023-04-25T15:23:33.387Z,2.50
2023-04-25T15:38:34.867Z,1.90
2023-04-25T15:53:36.335Z,1.80
2023-04-25T16:08:37.813Z,1.93
2023-04-25T16:23:39.298Z,2.73
2023-04-25T16:38:40.785Z,4.43
2023-04-25T16:53:42.251Z,4.23
2023-04-25T17:08:43.710Z,3.30
2023-04-25T17:23:45.257Z,2.37
2023-04-25T17:38:46.727Z,1.80
2023-04-25T17:53:48.204Z,1.50
2023-04-25T18:08:50.002Z,1.63
2023-04-25T18:23:51.714Z,1.50
2023-04-25T18:38:55.193Z,1.20
2023-04-25T18:53:57.571Z,1.03
2023-04-25T19:08:59.048Z,1.23
2023-04-25T19:24:00.527Z,1.67
2023-04-25T19:39:02.105Z,1.53
2023-04-25T19:54:03.628Z,1.50
2023-04-25T20:09:05.104Z,1.40
2023-04-25T20:24:06.600Z,1.50
2023-04-25T20:39:08.085Z,1.50
2023-04-25T20:54:10.967Z,1.20
2023-04-25T21:09:12.645Z,1.23
2023-04-25T21:24:14.138Z,1.33
2023-04-25T21:39:18.018Z,1.27
2023-04-25T21:54:19.490Z,1.20
2023-04-25T22:09:20.952Z,1.47
2023-04-25T22:24:22.412Z,1.20
2023-04-25T22:39:23.909Z,1.37
2023-04-25T22:54:25.395Z,1.40
2023-04-25T23:09:26.862Z,1.23
2023-04-25T23:24:28.343Z,1.17
2023-04-25T23:39:29.824Z,1.23
2023-04-25T23:54:31.292Z,1.20
